Time;durP1;ratioP1;P1;durP2;ratioP2;P2;SDS_P1;SDS_P2;PMS_P1;PMS_P2;Temp;Humidity;BMP_temperature;BMP_pressure;BME280_temperature;BME280_humidity;BME280_pressure;Samples;Min_cycle;Max_cycle;Signal;HPM_P1;HPM_P2
2021/05/29 00:00:37;;;;;;;3.33;2.30;;;17.70;99.90;;;;;;4337643;32;20085;-83
2021/05/29 00:03:04;;;;;;;3.95;2.75;;;17.70;99.90;;;;;;4335677;32;20071;-82
2021/05/29 00:05:30;;;;;;;3.92;2.60;;;17.60;99.90;;;;;;4332684;32;20062;-82
2021/05/29 00:07:56;;;;;;;3.87;2.75;;;17.60;99.90;;;;;;4332295;33;20079;-83
2021/05/29 00:10:22;;;;;;;4.70;2.87;;;17.50;99.90;;;;;;4320138;33;20071;-83
2021/05/29 00:12:48;;;;;;;4.43;2.60;;;17.50;99.90;;;;;;4330328;33;20095;-82
2021/05/29 00:15:15;;;;;;;5.07;3.00;;;17.50;99.90;;;;;;4301563;33;20087;-81
2021/05/29 00:17:41;;;;;;;4.25;2.50;;;17.50;99.90;;;;;;4315679;33;20067;-80
2021/05/29 00:20:08;;;;;;;3.95;2.83;;;17.60;99.90;;;;;;4320702;33;20098;-81
2021/05/29 00:22:35;;;;;;;4.37;2.72;;;17.70;99.90;;;;;;4334461;32;20075;-79
2021/05/29 00:25:01;;;;;;;5.97;2.80;;;17.70;99.90;;;;;;4328986;33;20090;-82
2021/05/29 00:27:27;;;;;;;3.90;2.80;;;17.50;99.90;;;;;;4323703;33;20093;-79
2021/05/29 00:30:06;;;;;;;3.83;2.60;;;17.40;99.90;;;;;;3814469;37;20425;-79
2021/05/29 00:32:32;;;;;;;4.50;2.72;;;17.40;99.90;;;;;;4355006;32;20066;-80
2021/05/29 00:34:58;;;;;;;5.00;2.87;;;17.50;99.90;;;;;;4371860;32;20074;-82
2021/05/29 00:37:24;;;;;;;4.37;2.70;;;17.40;99.90;;;;;;4366556;32;20097;-82
2021/05/29 00:39:51;;;;;;;4.97;2.45;;;17.30;99.90;;;;;;4362738;32;20074;-81
2021/05/29 00:42:17;;;;;;;3.65;2.53;;;17.30;99.90;;;;;;4349369;32;20098;-79
2021/05/29 00:44:51;;;;;;;7.90;3.03;;;17.30;99.90;;;;;;4348446;32;20073;-79
2021/05/29 00:47:28;;;;;;;4.62;2.62;;;17.30;99.90;;;;;;4355024;32;20082;-81
2021/05/29 00:49:58;;;;;;;4.65;3.50;;;17.30;99.90;;;;;;4341528;32;20074;-82
2021/05/29 00:52:24;;;;;;;5.68;3.40;;;17.30;99.90;;;;;;4362501;32;20189;-78
2021/05/29 00:54:51;;;;;;;6.70;3.30;;;17.30;99.90;;;;;;4347929;32;20086;-81
2021/05/29 00:57:17;;;;;;;4.03;3.10;;;17.30;99.90;;;;;;4350065;32;20097;-82
2021/05/29 00:59:44;;;;;;;5.10;2.87;;;17.20;99.90;;;;;;4335413;32;20078;-84
2021/05/29 01:02:13;;;;;;;3.87;2.97;;;17.20;99.90;;;;;;4360843;32;20159;-83
2021/05/29 01:04:39;;;;;;;4.37;3.15;;;17.30;99.90;;;;;;4337999;32;20081;-81
2021/05/29 01:07:14;;;;;;;4.30;3.12;;;17.20;99.90;;;;;;4356031;32;20081;-83
2021/05/29 01:09:41;;;;;;;4.57;2.92;;;17.30;99.90;;;;;;4355300;32;20073;-82
2021/05/29 01:12:09;;;;;;;4.25;3.00;;;17.30;99.90;;;;;;4335455;32;20085;-83
2021/05/29 01:14:39;;;;;;;5.87;3.08;;;17.20;99.90;;;;;;4362825;32;20074;-83
2021/05/29 01:17:05;;;;;;;5.43;3.10;;;17.10;99.90;;;;;;4363666;32;20112;-81
2021/05/29 01:19:32;;;;;;;4.55;2.90;;;17.20;99.90;;;;;;4351457;32;20066;-82
2021/05/29 01:21:58;;;;;;;5.82;3.00;;;17.30;99.90;;;;;;4345323;32;20139;-82
2021/05/29 01:24:26;;;;;;;5.80;2.72;;;17.30;99.90;;;;;;4350399;32;20062;-84
2021/05/29 01:26:53;;;;;;;6.72;3.20;;;17.30;99.90;;;;;;4349440;32;20078;-82
2021/05/29 01:29:19;;;;;;;5.68;3.10;;;17.20;99.90;;;;;;4352644;32;20086;-83
2021/05/29 01:31:48;;;;;;;10.77;3.75;;;17.10;99.90;;;;;;4355237;32;20154;-81
2021/05/29 01:34:15;;;;;;;4.75;3.05;;;17.10;99.90;;;;;;4346995;32;20154;-82
2021/05/29 01:36:41;;;;;;;4.40;2.90;;;17.00;99.90;;;;;;4350803;32;20529;-80
2021/05/29 01:39:09;;;;;;;4.25;2.80;;;17.10;99.90;;;;;;4366118;32;20081;-83
2021/05/29 01:41:35;;;;;;;5.10;2.72;;;17.20;99.90;;;;;;4342282;32;20086;-81
2021/05/29 01:44:01;;;;;;;4.35;2.90;;;17.20;99.90;;;;;;4324473;32;20065;-84
2021/05/29 01:46:28;;;;;;;5.90;2.75;;;17.20;99.90;;;;;;4352658;32;20101;-82
2021/05/29 01:48:54;;;;;;;4.75;3.15;;;17.20;99.90;;;;;;4325355;32;20541;-82
2021/05/29 01:51:22;;;;;;;9.55;3.17;;;17.20;99.90;;;;;;4342990;32;20142;-82
2021/05/29 01:53:49;;;;;;;6.57;3.40;;;17.30;99.90;;;;;;4324932;32;20065;-83
2021/05/29 01:56:16;;;;;;;6.22;3.53;;;17.40;99.90;;;;;;4338836;32;20485;-82
2021/05/29 01:58:43;;;;;;;8.05;3.50;;;17.50;99.90;;;;;;4326396;32;20078;-82
2021/05/29 02:01:11;;;;;;;4.53;3.30;;;17.40;99.90;;;;;;4344296;32;20074;-82
2021/05/29 02:03:38;;;;;;;4.72;3.40;;;17.50;99.90;;;;;;4337790;32;20078;-82
2021/05/29 02:06:05;;;;;;;6.12;3.12;;;17.60;99.90;;;;;;4337197;32;20098;-81
2021/05/29 02:08:31;;;;;;;4.03;2.80;;;17.60;99.90;;;;;;4339470;32;20074;-82
2021/05/29 02:10:57;;;;;;;5.12;2.72;;;17.50;99.90;;;;;;4351541;32;20086;-79
2021/05/29 02:13:42;;;;;;;4.20;3.00;;;17.60;99.90;;;;;;4338923;32;20516;-84
2021/05/29 02:16:10;;;;;;;4.20;2.72;;;17.60;99.90;;;;;;4338654;32;20177;-82
2021/05/29 02:18:40;;;;;;;6.18;2.80;;;17.60;99.90;;;;;;4327781;32;20232;-82
2021/05/29 02:21:11;;;;;;;4.53;2.42;;;17.60;99.90;;;;;;4327652;32;20489;-83
2021/05/29 02:23:48;;;;;;;5.53;3.00;;;17.80;99.90;;;;;;4344515;32;20190;-82
2021/05/29 02:26:20;;;;;;;4.93;2.50;;;17.80;99.90;;;;;;4337549;32;20090;-83
2021/05/29 02:28:49;;;;;;;5.55;2.62;;;17.90;99.90;;;;;;4325564;32;20527;-84
2021/05/29 02:31:16;;;;;;;7.00;2.50;;;18.00;99.90;;;;;;4363980;32;20460;-82
2021/05/29 02:33:42;;;;;;;6.05;2.67;;;17.90;99.90;;;;;;4326977;32;20125;-82
2021/05/29 02:36:09;;;;;;;3.60;2.60;;;18.00;99.90;;;;;;4327229;32;20542;-82
2021/05/29 02:38:36;;;;;;;4.70;2.87;;;18.20;99.90;;;;;;4351752;32;20110;-80
2021/05/29 02:41:10;;;;;;;6.37;2.65;;;18.40;99.90;;;;;;4339920;32;20513;-82
2021/05/29 02:43:37;;;;;;;5.43;2.75;;;18.40;99.90;;;;;;4348955;32;20085;-80
2021/05/29 02:46:03;;;;;;;4.40;2.47;;;18.50;99.90;;;;;;4333586;32;20086;-79
2021/05/29 02:48:29;;;;;;;5.03;2.55;;;18.40;99.90;;;;;;4354702;32;20070;-81
2021/05/29 02:50:55;;;;;;;3.67;2.60;;;18.40;99.90;;;;;;4340101;32;20481;-80
2021/05/29 02:53:22;;;;;;;4.90;2.60;;;18.70;99.90;;;;;;4340503;32;20128;-81
2021/05/29 02:55:48;;;;;;;4.28;2.70;;;18.60;99.90;;;;;;4362712;32;20088;-80
2021/05/29 02:58:14;;;;;;;5.07;2.58;;;18.80;99.90;;;;;;4340454;32;20159;-80
2021/05/29 03:00:46;;;;;;;5.32;2.90;;;18.90;99.90;;;;;;4356907;32;20043;-81
2021/05/29 03:03:12;;;;;;;5.72;2.72;;;19.10;99.90;;;;;;4371084;32;20046;-80
2021/05/29 03:05:47;;;;;;;4.68;2.70;;;19.40;99.90;;;;;;4355780;32;20098;-80
2021/05/29 03:08:16;;;;;;;7.62;2.90;;;19.50;99.20;;;;;;4352337;32;20073;-80
2021/05/29 03:10:44;;;;;;;5.78;2.80;;;19.70;98.60;;;;;;4330064;32;20074;-81
2021/05/29 03:13:10;;;;;;;6.25;2.47;;;19.70;98.90;;;;;;4325148;32;20074;-81
2021/05/29 03:15:37;;;;;;;5.50;2.78;;;19.60;96.20;;;;;;4346110;32;20090;-83
2021/05/29 03:18:05;;;;;;;9.15;2.97;;;19.40;97.70;;;;;;4349523;32;20094;-83
2021/05/29 03:20:31;;;;;;;5.03;3.10;;;19.30;99.30;;;;;;4352905;32;20092;-82
2021/05/29 03:22:57;;;;;;;6.10;3.47;;;19.40;99.40;;;;;;4329730;32;20074;-81
2021/05/29 03:25:24;;;;;;;5.22;2.72;;;19.20;99.10;;;;;;4340345;32;20077;-80
2021/05/29 03:27:52;;;;;;;10.50;3.03;;;19.40;98.60;;;;;;4353845;32;20057;-80
2021/05/29 03:30:25;;;;;;;4.82;2.75;;;19.50;99.90;;;;;;4324984;32;20106;-83
2021/05/29 03:32:52;;;;;;;5.82;2.90;;;19.70;98.90;;;;;;4335889;32;20070;-81
2021/05/29 03:35:19;;;;;;;6.68;3.08;;;19.80;96.90;;;;;;4338344;32;20078;-82
2021/05/29 03:37:45;;;;;;;7.72;3.12;;;19.70;97.50;;;;;;4338740;32;20070;-80
2021/05/29 03:40:12;;;;;;;5.70;3.10;;;19.80;96.20;;;;;;4338614;32;20224;-78
2021/05/29 03:42:39;;;;;;;8.63;3.53;;;19.90;96.50;;;;;;4335282;32;20065;-80
2021/05/29 03:45:12;;;;;;;10.18;4.90;;;19.70;96.00;;;;;;4328691;32;20070;-80
2021/05/29 03:47:39;;;;;;;11.68;5.97;;;19.80;95.70;;;;;;4319661;32;20528;-80
2021/05/29 03:50:06;;;;;;;12.35;4.70;;;20.00;94.80;;;;;;4348739;32;20502;-80
2021/05/29 03:52:32;;;;;;;8.88;5.00;;;20.00;95.40;;;;;;4336589;32;20509;-81
2021/05/29 03:54:58;;;;;;;8.02;5.07;;;20.00;94.90;;;;;;4326513;32;20477;-83
2021/05/29 03:57:25;;;;;;;9.18;4.75;;;20.20;93.70;;;;;;4349940;32;20070;-83
2021/05/29 03:59:51;;;;;;;7.12;4.53;;;20.30;93.70;;;;;;4348350;32;20066;-82
2021/05/29 04:02:17;;;;;;;7.95;4.37;;;20.40;93.30;;;;;;4325854;32;20168;-82
2021/05/29 04:04:43;;;;;;;11.07;4.85;;;20.60;92.50;;;;;;4335298;32;20074;-83
2021/05/29 04:07:09;;;;;;;9.68;4.70;;;20.70;91.40;;;;;;4348343;32;20081;-82
2021/05/29 04:09:36;;;;;;;8.25;4.87;;;20.80;90.90;;;;;;4322965;32;20585;-82
2021/05/29 04:12:02;;;;;;;7.90;4.78;;;20.90;89.00;;;;;;4324576;32;20146;-80
2021/05/29 04:14:28;;;;;;;10.13;5.18;;;20.80;87.00;;;;;;4335103;32;20141;-83
2021/05/29 04:16:55;;;;;;;10.95;5.25;;;20.90;89.80;;;;;;4347378;32;20066;-81
2021/05/29 04:19:21;;;;;;;9.93;5.32;;;20.80;90.40;;;;;;4334190;32;20082;-80
2021/05/29 04:21:47;;;;;;;16.17;5.60;;;21.00;87.30;;;;;;4335018;32;20089;-80
2021/05/29 04:24:13;;;;;;;10.77;6.32;;;21.30;86.00;;;;;;4348795;32;20093;-81
2021/05/29 04:26:40;;;;;;;10.23;5.87;;;21.20;83.50;;;;;;4349900;32;20063;-81
2021/05/29 04:29:06;;;;;;;11.88;6.00;;;22.00;75.70;;;;;;4322559;32;20055;-83
2021/05/29 04:31:32;;;;;;;11.85;6.28;;;23.40;59.60;;;;;;4318144;32;20074;-81
2021/05/29 04:33:58;;;;;;;14.27;6.43;;;24.50;50.90;;;;;;4344612;32;20161;-82
2021/05/29 04:36:24;;;;;;;13.30;6.40;;;24.30;52.10;;;;;;4335328;32;20066;-82
2021/05/29 04:38:51;;;;;;;13.13;6.70;;;24.90;48.60;;;;;;4349714;32;20074;-80
2021/05/29 04:41:17;;;;;;;19.65;6.87;;;25.10;48.50;;;;;;4349850;32;20077;-82
2021/05/29 04:43:43;;;;;;;20.95;6.68;;;24.70;51.90;;;;;;4325021;32;20170;-82
2021/05/29 04:46:09;;;;;;;21.42;7.00;;;24.40;51.40;;;;;;4337479;32;20078;-83
2021/05/29 04:48:35;;;;;;;24.95;7.70;;;23.80;55.20;;;;;;4350011;32;20539;-80
2021/05/29 04:51:12;;;;;;;13.32;5.78;;;23.30;58.90;;;;;;4325424;32;20150;-81
2021/05/29 04:53:42;;;;;;;13.52;5.28;;;23.30;59.90;;;;;;4343474;32;20094;-82
2021/05/29 04:56:09;;;;;;;9.95;5.40;;;23.50;61.10;;;;;;4334345;32;20180;-82
2021/05/29 04:58:37;;;;;;;13.48;6.20;;;23.70;59.40;;;;;;4338389;32;20074;-79
2021/05/29 05:01:07;;;;;;;9.88;6.45;;;23.10;61.20;;;;;;4323526;32;20104;-80
2021/05/29 05:03:35;;;;;;;12.00;6.65;;;22.90;64.30;;;;;;4323860;32;20074;-82
2021/05/29 05:06:01;;;;;;;10.07;6.20;;;22.80;65.60;;;;;;4332648;32;20441;-79
2021/05/29 05:08:27;;;;;;;11.12;5.90;;;23.40;62.70;;;;;;4337792;32;20078;-80
2021/05/29 05:10:55;;;;;;;9.30;5.70;;;23.20;62.40;;;;;;4338097;32;20238;-79
2021/05/29 05:13:23;;;;;;;9.27;5.78;;;23.40;60.90;;;;;;4350087;32;20497;-79
2021/05/29 05:15:53;;;;;;;12.05;5.78;;;23.50;60.80;;;;;;4331515;32;20137;-81
2021/05/29 05:18:23;;;;;;;9.80;5.25;;;24.60;52.00;;;;;;4340183;32;20067;-83
2021/05/29 05:20:52;;;;;;;10.13;5.22;;;24.50;54.00;;;;;;4328410;32;20082;-83
2021/05/29 05:23:21;;;;;;;14.30;8.00;;;25.80;48.60;;;;;;4358069;32;20085;-79
2021/05/29 05:25:50;;;;;;;17.60;8.80;;;25.40;47.70;;;;;;4338606;32;20090;-83
2021/05/29 05:28:16;;;;;;;11.77;7.47;;;24.00;56.40;;;;;;4337555;32;20086;-81
2021/05/29 05:30:43;;;;;;;18.92;7.20;;;24.60;53.20;;;;;;4352744;32;20070;-83
2021/05/29 05:33:09;;;;;;;10.13;6.28;;;24.30;51.00;;;;;;4358254;32;20576;-82
2021/05/29 05:35:36;;;;;;;12.13;6.10;;;24.20;54.40;;;;;;4334388;32;20092;-81
2021/05/29 05:38:02;;;;;;;7.55;5.30;;;23.30;56.80;;;;;;4325432;32;20097;-80
2021/05/29 05:40:28;;;;;;;9.98;5.80;;;23.20;57.90;;;;;;4340051;32;20093;-83
2021/05/29 05:42:54;;;;;;;8.45;5.30;;;23.10;58.10;;;;;;4358621;32;20081;-81
2021/05/29 05:45:20;;;;;;;15.70;5.75;;;22.90;58.90;;;;;;4332874;32;20071;-80
2021/05/29 05:47:47;;;;;;;8.00;4.62;;;22.90;58.40;;;;;;4351705;32;20453;-82
2021/05/29 05:50:13;;;;;;;8.93;4.97;;;22.50;59.60;;;;;;4350496;32;20058;-83
2021/05/29 05:52:40;;;;;;;8.23;4.12;;;23.00;56.80;;;;;;4325159;32;20080;-82
2021/05/29 05:55:07;;;;;;;12.73;4.55;;;23.00;57.10;;;;;;4337195;32;20500;-82
2021/05/29 05:57:34;;;;;;;7.87;4.20;;;22.50;58.30;;;;;;4334357;32;20148;-81
2021/05/29 06:00:01;;;;;;;6.80;3.80;;;22.60;58.40;;;;;;4340018;32;20070;-82
2021/05/29 06:02:27;;;;;;;5.72;3.72;;;23.60;52.10;;;;;;4327680;32;20071;-82
2021/05/29 06:04:54;;;;;;;7.85;4.12;;;22.90;57.30;;;;;;4326055;32;20063;-82
2021/05/29 06:07:20;;;;;;;6.05;4.20;;;22.80;57.70;;;;;;4358148;32;20170;-83
2021/05/29 06:09:46;;;;;;;6.78;3.92;;;22.60;60.80;;;;;;4351897;32;20101;-82
2021/05/29 06:12:13;;;;;;;9.85;4.47;;;22.80;58.50;;;;;;4351385;32;20164;-82
2021/05/29 06:20:13;;;;;;;8.57;6.20;;;22.20;62.90;;;;;;4337390;32;20525;-81
2021/05/29 06:22:40;;;;;;;8.32;5.53;;;22.00;65.30;;;;;;4360924;32;20070;-78
2021/05/29 06:25:12;;;;;;;8.68;5.28;;;21.60;70.60;;;;;;4350843;32;20106;-80
2021/05/29 06:27:38;;;;;;;7.57;5.10;;;21.80;73.40;;;;;;4341553;32;20066;-82
2021/05/29 06:30:05;;;;;;;9.13;4.40;;;22.00;71.20;;;;;;4351611;32;20081;-82
2021/05/29 06:32:32;;;;;;;13.93;5.22;;;22.10;69.30;;;;;;4339490;32;20515;-79
2021/05/29 06:34:58;;;;;;;7.87;4.43;;;21.90;68.70;;;;;;4324411;32;20081;-81
2021/05/29 06:38:01;;;;;;;9.18;4.57;;;22.50;66.50;;;;;;4348715;32;20078;-83
2021/05/29 06:40:27;;;;;;;5.75;3.95;;;22.20;65.50;;;;;;4337382;32;20070;-81
2021/05/29 06:42:54;;;;;;;6.05;4.37;;;22.00;68.70;;;;;;4331655;32;20071;-79
2021/05/29 06:45:20;;;;;;;8.02;4.32;;;22.20;67.60;;;;;;4342449;32;20129;-76
2021/05/29 06:47:47;;;;;;;10.25;3.20;;;22.50;64.20;;;;;;4370106;32;20110;-73
2021/05/29 06:50:14;;;;;;;10.02;3.17;;;22.20;64.40;;;;;;4353576;32;20086;-72
2021/05/29 06:52:44;;;;;;;7.72;3.65;;;22.40;63.50;;;;;;4332705;32;20589;-77
2021/05/29 07:00:40;;;;;;;7.90;4.03;;;22.40;62.60;;;;;;4347538;32;20077;-73
2021/05/29 07:03:06;;;;;;;10.77;4.40;;;22.40;64.90;;;;;;4339810;32;20106;-75
2021/05/29 07:05:32;;;;;;;12.77;4.47;;;22.30;65.90;;;;;;4333374;32;20237;-70
2021/05/29 07:07:58;;;;;;;7.18;4.10;;;22.20;66.40;;;;;;4339071;32;20066;-73
2021/05/29 07:10:24;;;;;;;7.60;4.20;;;22.20;69.80;;;;;;4353757;32;20150;-71
2021/05/29 07:12:51;;;;;;;7.97;4.15;;;22.20;71.60;;;;;;4338492;32;20508;-73
2021/05/29 07:15:17;;;;;;;6.12;4.05;;;22.20;77.10;;;;;;4348435;32;20089;-81
2021/05/29 07:17:46;;;;;;;7.00;4.00;;;22.40;74.20;;;;;;4323378;32;20098;-79
2021/05/29 07:20:13;;;;;;;7.47;4.20;;;22.40;83.20;;;;;;4334375;32;20078;-82
2021/05/29 07:22:39;;;;;;;11.63;4.05;;;22.10;82.00;;;;;;4338238;32;20079;-72
2021/05/29 07:25:07;;;;;;;5.72;3.58;;;22.00;88.10;;;;;;4338288;32;20062;-74
2021/05/29 07:27:33;;;;;;;7.78;3.25;;;21.70;93.40;;;;;;4343527;32;20506;-72
2021/05/29 07:30:06;;;;;;;7.62;3.17;;;21.70;95.30;;;;;;4336695;32;20059;-77
2021/05/29 07:32:35;;;;;;;5.20;3.25;;;21.80;92.40;;;;;;4348756;32;20060;-78
2021/05/29 07:35:03;;;;;;;8.77;3.65;;;21.80;90.90;;;;;;4368047;32;20135;-77
2021/05/29 07:37:29;;;;;;;8.95;3.67;;;22.00;86.40;;;;;;4349952;32;20090;-75
2021/05/29 07:39:55;;;;;;;6.85;3.62;;;22.10;86.80;;;;;;4326491;32;20074;-76
2021/05/29 07:42:22;;;;;;;7.90;3.62;;;21.90;88.90;;;;;;4338993;32;21370;-79
2021/05/29 07:44:48;;;;;;;7.95;3.78;;;22.10;87.20;;;;;;4346068;32;20533;-75
2021/05/29 07:47:16;;;;;;;7.05;3.78;;;22.30;86.30;;;;;;4342985;32;20222;-79
2021/05/29 07:49:43;;;;;;;8.88;3.70;;;22.30;83.50;;;;;;4334881;32;20063;-74
2021/05/29 07:52:10;;;;;;;6.05;3.00;;;22.40;84.60;;;;;;4322768;32;20112;-72
2021/05/29 07:54:36;;;;;;;4.93;3.45;;;22.60;79.00;;;;;;4349709;32;20097;-76
2021/05/29 07:57:03;;;;;;;7.40;3.37;;;22.60;82.00;;;;;;4322171;32;20098;-74
2021/05/29 07:59:29;;;;;;;11.02;3.65;;;22.50;77.40;;;;;;4342814;32;20098;-75
2021/05/29 08:01:55;;;;;;;11.27;3.40;;;22.60;76.90;;;;;;4349438;32;20086;-72
2021/05/29 08:04:21;;;;;;;7.97;3.20;;;22.60;74.30;;;;;;4334147;32;20074;-74
2021/05/29 08:06:47;;;;;;;5.47;2.83;;;22.50;75.80;;;;;;4337411;32;20089;-74
2021/05/29 08:09:14;;;;;;;6.25;3.00;;;22.70;73.80;;;;;;4337671;32;20440;-74
2021/05/29 08:11:40;;;;;;;6.95;3.17;;;23.00;71.90;;;;;;4375753;32;20097;-72
2021/05/29 08:14:08;;;;;;;11.60;3.40;;;22.90;62.50;;;;;;4338000;32;20055;-74
2021/05/29 08:16:35;;;;;;;6.43;3.12;;;22.80;62.10;;;;;;4336536;32;20082;-74
2021/05/29 08:19:01;;;;;;;5.90;2.90;;;23.20;61.80;;;;;;4335578;32;20070;-75
2021/05/29 08:21:29;;;;;;;9.95;3.10;;;23.10;62.50;;;;;;4356279;32;20074;-74
2021/05/29 08:23:55;;;;;;;6.18;2.83;;;23.30;63.90;;;;;;4362195;32;20073;-74
2021/05/29 08:26:22;;;;;;;8.88;2.90;;;23.40;62.30;;;;;;4337177;32;20067;-71
2021/05/29 08:28:48;;;;;;;5.37;2.75;;;23.80;60.60;;;;;;4325136;32;20151;-71
2021/05/29 08:31:15;;;;;;;4.80;2.62;;;24.20;61.00;;;;;;4337879;32;20515;-73
2021/05/29 08:33:41;;;;;;;6.15;3.00;;;25.90;52.30;;;;;;4335411;32;20150;-73
2021/05/29 08:36:08;;;;;;;5.55;2.78;;;25.20;50.00;;;;;;4337427;32;20154;-74
2021/05/29 08:38:34;;;;;;;7.82;3.10;;;24.40;55.80;;;;;;4346395;32;20504;-72
2021/05/29 08:41:01;;;;;;;6.25;2.90;;;25.00;55.50;;;;;;4340848;32;20090;-74
2021/05/29 08:43:27;;;;;;;5.43;3.00;;;24.60;53.50;;;;;;4347129;32;20059;-73
2021/05/29 08:45:54;;;;;;;3.85;2.90;;;25.00;58.20;;;;;;4328145;32;20085;-73
2021/05/29 08:48:20;;;;;;;5.20;2.80;;;25.20;57.50;;;;;;4346489;32;20145;-72
2021/05/29 08:53:31;;;;;;;4.75;2.78;;;25.40;52.90;;;;;;4359304;32;20099;-73
2021/05/29 08:55:58;;;;;;;5.47;2.87;;;25.30;49.50;;;;;;4362594;32;20070;-72
2021/05/29 08:58:25;;;;;;;7.60;3.03;;;25.40;50.20;;;;;;4339930;32;20212;-71
2021/05/29 09:00:51;;;;;;;6.40;2.95;;;26.00;49.60;;;;;;4340259;32;20070;-73
2021/05/29 09:03:17;;;;;;;6.95;3.08;;;26.40;43.70;;;;;;4342884;32;20074;-72
2021/05/29 09:05:53;;;;;;;4.57;2.70;;;25.60;46.40;;;;;;4360673;32;20059;-72
2021/05/29 09:08:21;;;;;;;3.97;2.45;;;25.60;46.30;;;;;;4350735;32;20085;-72
2021/05/29 09:10:56;;;;;;;3.87;2.83;;;25.70;45.90;;;;;;4325822;32;20070;-72
2021/05/29 09:13:27;;;;;;;4.87;2.73;;;25.80;45.50;;;;;;4344936;32;20131;-73
2021/05/29 09:16:05;;;;;;;4.87;2.65;;;26.10;45.30;;;;;;4334772;32;20085;-72
2021/05/29 09:18:35;;;;;;;6.68;2.62;;;26.00;45.60;;;;;;4338964;32;20254;-73
2021/05/29 09:21:28;;;;;;;5.28;2.70;;;25.90;47.30;;;;;;4370489;32;20065;-73
2021/05/29 09:24:11;;;;;;;7.60;3.00;;;26.00;46.40;;;;;;4353884;32;20179;-74
2021/05/29 09:26:47;;;;;;;6.40;3.03;;;26.60;45.20;;;;;;4362028;32;20077;-73
2021/05/29 09:29:28;;;;;;;4.72;2.72;;;26.80;43.80;;;;;;4336913;32;20600;-73
2021/05/29 09:32:08;;;;;;;5.87;2.75;;;27.60;41.40;;;;;;4335227;32;20090;-74
2021/05/29 09:34:51;;;;;;;6.07;3.15;;;27.70;42.10;;;;;;4337851;32;20063;-73
2021/05/29 09:37:26;;;;;;;9.30;3.35;;;27.50;41.50;;;;;;4341852;32;20075;-73
2021/05/29 09:40:00;;;;;;;8.60;3.15;;;27.80;41.00;;;;;;4364617;32;20243;-72
2021/05/29 09:42:28;;;;;;;5.45;3.08;;;26.80;41.30;;;;;;4314108;32;20090;-72
2021/05/29 09:44:55;;;;;;;6.40;3.37;;;26.70;42.80;;;;;;4320239;32;20067;-72
2021/05/29 09:47:25;;;;;;;5.30;3.20;;;26.70;42.50;;;;;;4358581;32;20586;-72
2021/05/29 09:49:53;;;;;;;5.20;2.97;;;27.00;40.80;;;;;;4328718;32;20078;-72
2021/05/29 09:52:31;;;;;;;5.53;2.62;;;27.40;41.10;;;;;;4350862;32;20157;-73
2021/05/29 09:55:10;;;;;;;3.83;2.65;;;27.20;39.60;;;;;;4351909;32;20154;-72
2021/05/29 09:57:59;;;;;;;6.12;3.40;;;27.00;40.90;;;;;;4359723;32;20074;-71
2021/05/29 10:00:43;;;;;;;7.40;3.12;;;27.10;40.90;;;;;;4351688;32;20090;-73
2021/05/29 10:03:09;;;;;;;5.87;2.92;;;27.20;41.30;;;;;;4357240;32;20070;-73
2021/05/29 10:05:47;;;;;;;9.48;3.05;;;27.00;41.50;;;;;;4324791;32;20085;-72
2021/05/29 10:08:14;;;;;;;6.00;2.97;;;27.30;39.70;;;;;;4335086;32;20059;-72
2021/05/29 10:10:41;;;;;;;5.10;3.10;;;27.40;40.40;;;;;;4348181;32;20082;-73
2021/05/29 10:13:07;;;;;;;10.27;3.37;;;27.20;41.20;;;;;;4318302;32;20076;-73
2021/05/29 10:15:34;;;;;;;6.80;3.17;;;27.00;41.40;;;;;;4337015;32;20172;-71
2021/05/29 10:18:02;;;;;;;7.32;3.80;;;26.70;44.80;;;;;;4361196;32;20078;-73
2021/05/29 10:20:32;;;;;;;7.00;3.50;;;26.60;45.20;;;;;;4314002;32;20081;-73
2021/05/29 10:22:59;;;;;;;8.05;3.55;;;26.50;46.00;;;;;;4349431;32;20078;-72
2021/05/29 10:25:25;;;;;;;5.75;2.97;;;26.60;46.30;;;;;;4337077;32;20476;-71
2021/05/29 10:27:54;;;;;;;9.30;3.67;;;26.50;46.40;;;;;;4338626;32;20070;-73
2021/05/29 10:30:25;;;;;;;6.65;3.42;;;26.60;46.90;;;;;;4336793;32;20149;-71
2021/05/29 10:33:19;;;;;;;8.07;3.30;;;26.20;47.20;;;;;;4312849;32;20070;-72
2021/05/29 10:35:46;;;;;;;6.30;3.50;;;26.60;47.30;;;;;;4351608;32;20182;-71
2021/05/29 10:38:13;;;;;;;6.32;3.42;;;26.70;46.00;;;;;;4348855;32;20065;-73
2021/05/29 10:40:51;;;;;;;7.90;3.45;;;26.50;48.50;;;;;;4327882;32;20101;-73
2021/05/29 10:43:19;;;;;;;7.12;3.58;;;26.30;53.00;;;;;;4349760;32;20065;-73
2021/05/29 10:45:51;;;;;;;7.53;3.78;;;26.20;58.00;;;;;;4338399;32;20472;-73
2021/05/29 10:48:25;;;;;;;11.98;4.25;;;26.10;62.20;;;;;;4375742;32;20074;-73
2021/05/29 10:53:45;;;;;;;6.37;3.80;;;25.60;66.00;;;;;;4355381;32;20152;-72
2021/05/29 10:56:24;;;;;;;11.02;4.12;;;25.80;65.00;;;;;;4349306;32;20067;-73
2021/05/29 10:59:07;;;;;;;10.02;4.00;;;25.20;70.70;;;;;;4362960;32;20449;-71
2021/05/29 11:01:35;;;;;;;8.45;4.18;;;25.40;69.00;;;;;;4354011;32;20051;-71
2021/05/29 11:04:21;;;;;;;6.90;4.43;;;25.50;66.00;;;;;;4374440;32;20057;-72
2021/05/29 11:07:21;;;;;;;7.53;4.00;;;25.30;65.30;;;;;;4361901;32;20073;-71
2021/05/29 11:09:53;;;;;;;7.60;3.42;;;25.00;68.00;;;;;;4342904;32;20074;-72
2021/05/29 11:12:20;;;;;;;7.82;4.07;;;24.80;68.80;;;;;;4336998;32;20097;-72
2021/05/29 11:14:55;;;;;;;7.68;3.70;;;25.00;67.30;;;;;;4337642;32;20058;-72
2021/05/29 11:17:26;;;;;;;10.15;4.72;;;25.20;64.70;;;;;;4344138;32;20505;-71
2021/05/29 11:20:17;;;;;;;4.93;3.65;;;25.30;63.60;;;;;;4338318;32;20074;-73
2021/05/29 11:22:47;;;;;;;7.12;4.07;;;25.20;64.70;;;;;;4348119;32;20457;-72
2021/05/29 11:25:16;;;;;;;10.85;4.80;;;25.20;65.00;;;;;;4328302;32;20096;-74
2021/05/29 11:27:44;;;;;;;11.05;3.87;;;25.40;66.70;;;;;;4334822;32;20070;-74
2021/05/29 11:30:12;;;;;;;7.85;3.95;;;25.20;65.80;;;;;;4349054;32;20069;-72
2021/05/29 11:35:43;;;;;;;9.02;3.67;;;25.20;64.80;;;;;;4349212;32;20070;-72
2021/05/29 11:38:34;;;;;;;;;;;25.10;68.10;;;;;;4338119;32;20144;-72
2021/05/29 11:41:09;;;;;;;8.52;3.60;;;25.20;65.80;;;;;;4362839;32;20368;-72
2021/05/29 11:43:49;;;;;;;5.50;3.90;;;25.40;67.00;;;;;;4342702;32;20078;-72
2021/05/29 11:46:21;;;;;;;7.20;3.90;;;26.00;63.90;;;;;;4322453;32;20086;-72
2021/05/29 11:49:00;;;;;;;11.35;5.03;;;26.00;57.40;;;;;;4338642;32;20154;-71
2021/05/29 11:51:28;;;;;;;11.07;4.05;;;25.40;57.30;;;;;;4354012;32;20071;-73
2021/05/29 11:53:56;;;;;;;10.82;3.97;;;25.50;57.30;;;;;;4335036;32;20089;-71
2021/05/29 11:56:33;;;;;;;7.65;3.67;;;25.70;55.40;;;;;;4337481;32;20183;-71
2021/05/29 11:59:00;;;;;;;9.48;4.03;;;25.70;55.10;;;;;;4335032;32;20578;-73
2021/05/29 12:01:35;;;;;;;6.93;3.95;;;25.50;55.50;;;;;;4335375;32;20157;-73
2021/05/29 12:04:08;;;;;;;9.40;3.47;;;25.70;55.20;;;;;;4338463;32;20119;-72
2021/05/29 12:07:01;;;;;;;5.68;3.40;;;25.30;55.40;;;;;;4346843;32;20426;-72
2021/05/29 12:09:36;;;;;;;7.65;3.67;;;25.20;58.90;;;;;;4349336;32;20126;-73
2021/05/29 12:12:07;;;;;;;8.60;3.53;;;25.30;56.20;;;;;;4334218;32;20449;-71
2021/05/29 12:14:40;;;;;;;7.85;4.07;;;25.50;55.20;;;;;;4335736;32;20240;-73
2021/05/29 12:17:17;;;;;;;5.62;3.95;;;25.60;57.30;;;;;;4354290;32;20085;-72
2021/05/29 12:19:52;;;;;;;5.95;3.92;;;25.40;57.70;;;;;;4336175;32;20070;-72
2021/05/29 12:22:26;;;;;;;6.57;4.30;;;25.10;58.30;;;;;;4349218;32;20174;-73
2021/05/29 12:25:10;;;;;;;7.78;3.87;;;25.10;58.20;;;;;;4326178;32;20076;-73
2021/05/29 12:27:43;;;;;;;8.27;3.97;;;25.30;58.20;;;;;;4343201;32;20138;-72
2021/05/29 12:30:13;;;;;;;11.73;4.37;;;25.60;57.60;;;;;;4336389;32;20118;-72
2021/05/29 12:32:43;;;;;;;8.00;4.60;;;25.30;61.20;;;;;;4325928;32;20143;-71
2021/05/29 12:35:12;;;;;;;8.00;4.60;;;25.70;60.90;;;;;;4338241;32;20531;-73
2021/05/29 12:37:39;;;;;;;7.45;4.35;;;25.70;57.70;;;;;;4358546;32;20066;-71
2021/05/29 12:40:14;;;;;;;13.30;4.85;;;25.90;57.70;;;;;;4337868;32;20059;-73
2021/05/29 12:42:49;;;;;;;7.57;4.77;;;26.70;55.60;;;;;;4346141;32;20556;-71
2021/05/29 12:45:20;;;;;;;9.07;4.40;;;26.50;57.70;;;;;;4333686;32;20155;-73
2021/05/29 12:48:01;;;;;;;12.18;5.10;;;27.30;54.10;;;;;;4347423;32;20187;-72
2021/05/29 12:50:28;;;;;;;7.68;4.62;;;26.70;53.60;;;;;;4335238;32;20047;-73
2021/05/29 12:53:15;;;;;;;7.47;4.07;;;27.00;55.60;;;;;;4349475;32;20069;-71
2021/05/29 12:55:43;;;;;;;8.80;5.25;;;26.80;54.00;;;;;;4339614;32;20070;-72
2021/05/29 12:58:20;;;;;;;9.40;4.03;;;26.20;53.10;;;;;;4346666;32;20073;-72
2021/05/29 13:01:16;;;;;;;6.80;5.03;;;26.80;53.30;;;;;;4324830;32;20448;-72
2021/05/29 13:09:49;;;;;;;9.40;4.57;;;26.90;47.50;;;;;;4306957;32;20164;-73
2021/05/29 13:12:17;;;;;;;6.90;4.28;;;26.40;49.50;;;;;;4346663;32;20082;-73
2021/05/29 13:14:44;;;;;;;5.18;3.80;;;26.60;48.60;;;;;;4362030;32;20082;-74
2021/05/29 13:17:24;;;;;;;6.65;3.80;;;26.30;49.40;;;;;;4346982;32;20097;-73
2021/05/29 13:19:58;;;;;;;7.12;4.10;;;26.70;48.00;;;;;;4337593;32;20169;-72
2021/05/29 13:22:29;;;;;;;6.50;4.45;;;27.20;47.70;;;;;;4349712;32;20081;-72